sensor_id;sensor_type;location;lat;lon;timestamp;temperature;humidity
1091;DHT22;534;48.704;9.122;2023-02-22T04:01:29;9.00;73.00
1091;DHT22;534;48.704;9.122;2023-02-22T04:03:55;9.00;72.80
1091;DHT22;534;48.704;9.122;2023-02-22T04:06:22;8.90;73.20
1091;DHT22;534;48.704;9.122;2023-02-22T04:08:49;8.90;73.20
1091;DHT22;534;48.704;9.122;2023-02-22T04:11:15;8.90;73.10
1091;DHT22;534;48.704;9.122;2023-02-22T04:13:42;8.90;73.30
1091;DHT22;534;48.704;9.122;2023-02-22T04:16:09;8.90;73.20
1091;DHT22;534;48.704;9.122;2023-02-22T04:18:36;8.80;73.60
1091;DHT22;534;48.704;9.122;2023-02-22T04:21:04;8.80;73.70
1091;DHT22;534;48.704;9.122;2023-02-22T04:23:30;8.90;73.70
1091;DHT22;534;48.704;9.122;2023-02-22T04:25:57;8.90;73.60
1091;DHT22;534;48.704;9.122;2023-02-22T04:28:24;8.90;73.80
1091;DHT22;534;48.704;9.122;2023-02-22T04:30:50;8.90;73.80
1091;DHT22;534;48.704;9.122;2023-02-22T04:33:17;8.80;74.10
1091;DHT22;534;48.704;9.122;2023-02-22T04:35:45;8.80;73.70
1091;DHT22;534;48.704;9.122;2023-02-22T04:38:12;8.70;74.00
1091;DHT22;534;48.704;9.122;2023-02-22T04:40:39;8.70;74.00
1091;DHT22;534;48.704;9.122;2023-02-22T04:43:06;8.80;73.90
1091;DHT22;534;48.704;9.122;2023-02-22T04:45:33;8.70;73.80
1091;DHT22;534;48.704;9.122;2023-02-22T04:47:59;8.70;73.50
1091;DHT22;534;48.704;9.122;2023-02-22T04:50:26;8.70;73.40
1091;DHT22;534;48.704;9.122;2023-02-22T04:52:54;8.70;73.40
1091;DHT22;534;48.704;9.122;2023-02-22T04:55:21;8.70;73.40
1091;DHT22;534;48.704;9.122;2023-02-22T04:57:48;8.60;73.20
1091;DHT22;534;48.704;9.122;2023-02-22T05:00:16;8.50;73.70
1091;DHT22;534;48.704;9.122;2023-02-22T05:02:45;8.50;73.90
1091;DHT22;534;48.704;9.122;2023-02-22T05:05:13;8.40;74.20
1091;DHT22;534;48.704;9.122;2023-02-22T05:07:40;8.50;74.10
1091;DHT22;534;48.704;9.122;2023-02-22T05:10:08;8.50;74.20
1091;DHT22;534;48.704;9.122;2023-02-22T05:12:35;8.50;74.30
1091;DHT22;534;48.704;9.122;2023-02-22T05:15:04;8.50;74.30
1091;DHT22;534;48.704;9.122;2023-02-22T05:17:30;8.50;74.40
1091;DHT22;534;48.704;9.122;2023-02-22T05:19:57;8.50;74.20
1091;DHT22;534;48.704;9.122;2023-02-22T05:22:24;8.40;74.20
1091;DHT22;534;48.704;9.122;2023-02-22T05:24:50;8.40;74.20
1091;DHT22;534;48.704;9.122;2023-02-22T05:27:19;8.50;74.30
1091;DHT22;534;48.704;9.122;2023-02-22T05:29:46;8.40;74.40
1091;DHT22;534;48.704;9.122;2023-02-22T05:32:12;8.40;74.50
1091;DHT22;534;48.704;9.122;2023-02-22T05:34:39;8.40;74.60
1091;DHT22;534;48.704;9.122;2023-02-22T05:37:06;8.40;74.80
1091;DHT22;534;48.704;9.122;2023-02-22T05:39:33;8.40;74.90
1091;DHT22;534;48.704;9.122;2023-02-22T05:41:59;8.50;75.00
1091;DHT22;534;48.704;9.122;2023-02-22T05:44:27;8.50;75.00
1091;DHT22;534;48.704;9.122;2023-02-22T05:46:54;8.60;74.80
1091;DHT22;534;48.704;9.122;2023-02-22T05:49:20;8.60;74.70
1091;DHT22;534;48.704;9.122;2023-02-22T05:51:47;8.60;74.80
1091;DHT22;534;48.704;9.122;2023-02-22T05:54:14;8.60;74.70
1091;DHT22;534;48.704;9.122;2023-02-22T05:56:40;8.60;74.90
1091;DHT22;534;48.704;9.122;2023-02-22T05:59:07;8.60;75.10
1091;DHT22;534;48.704;9.122;2023-02-22T06:01:35;8.60;75.10
1091;DHT22;534;48.704;9.122;2023-02-22T06:04:02;8.60;75.20
1091;DHT22;534;48.704;9.122;2023-02-22T06:06:28;8.50;75.20
1091;DHT22;534;48.704;9.122;2023-02-22T06:08:55;8.50;75.70
1091;DHT22;534;48.704;9.122;2023-02-22T06:11:21;8.50;75.80
1091;DHT22;534;48.704;9.122;2023-02-22T06:13:49;8.50;75.90
1091;DHT22;534;48.704;9.122;2023-02-22T06:16:16;8.50;76.10
1091;DHT22;534;48.704;9.122;2023-02-22T06:18:44;8.50;76.30
1091;DHT22;534;48.704;9.122;2023-02-22T06:21:11;8.50;76.30
1091;DHT22;534;48.704;9.122;2023-02-22T06:23:38;8.50;76.20
1091;DHT22;534;48.704;9.122;2023-02-22T06:26:05;8.50;76.20
1091;DHT22;534;48.704;9.122;2023-02-22T06:28:31;8.40;76.20
1091;DHT22;534;48.704;9.122;2023-02-22T06:30:58;8.50;76.20
1091;DHT22;534;48.704;9.122;2023-02-22T06:33:24;8.50;76.10
1091;DHT22;534;48.704;9.122;2023-02-22T06:35:52;8.60;75.90
1091;DHT22;534;48.704;9.122;2023-02-22T06:38:20;8.60;75.30
1091;DHT22;534;48.704;9.122;2023-02-22T06:40:47;8.60;75.20
1091;DHT22;534;48.704;9.122;2023-02-22T06:43:14;8.60;75.40
1091;DHT22;534;48.704;9.122;2023-02-22T06:45:41;8.70;75.20
1091;DHT22;534;48.704;9.122;2023-02-22T06:48:08;8.80;74.90
1091;DHT22;534;48.704;9.122;2023-02-22T06:50:34;8.70;75.00
1091;DHT22;534;48.704;9.122;2023-02-22T06:53:02;8.50;75.30
1091;DHT22;534;48.704;9.122;2023-02-22T06:55:31;8.40;75.90
1091;DHT22;534;48.704;9.122;2023-02-22T06:57:58;8.50;76.10
1091;DHT22;534;48.704;9.122;2023-02-22T07:00:26;8.80;75.80
1091;DHT22;534;48.704;9.122;2023-02-22T07:02:54;9.50;75.00
1091;DHT22;534;48.704;9.122;2023-02-22T07:05:22;10.20;72.80
1091;DHT22;534;48.704;9.122;2023-02-22T07:07:51;10.90;70.50
1091;DHT22;534;48.704;9.122;2023-02-22T07:10:21;11.40;68.70
1091;DHT22;534;48.704;9.122;2023-02-22T07:12:48;11.80;67.00
1091;DHT22;534;48.704;9.122;2023-02-22T07:15:17;12.10;66.70
1091;DHT22;534;48.704;9.122;2023-02-22T07:17:45;12.40;65.10
1091;DHT22;534;48.704;9.122;2023-02-22T07:20:12;12.70;64.40
1091;DHT22;534;48.704;9.122;2023-02-22T07:22:39;13.10;63.20
1091;DHT22;534;48.704;9.122;2023-02-22T07:25:07;13.50;62.80
1091;DHT22;534;48.704;9.122;2023-02-22T07:27:37;13.70;61.50
1091;DHT22;534;48.704;9.122;2023-02-22T07:30:05;13.90;61.40
1091;DHT22;534;48.704;9.122;2023-02-22T07:32:32;14.00;60.60
1091;DHT22;534;48.704;9.122;2023-02-22T07:34:59;13.90;61.10
1091;DHT22;534;48.704;9.122;2023-02-22T07:37:27;13.50;61.10
1091;DHT22;534;48.704;9.122;2023-02-22T07:39:53;13.20;62.20
1091;DHT22;534;48.704;9.122;2023-02-22T07:42:20;13.10;62.60
1091;DHT22;534;48.704;9.122;2023-02-22T07:44:49;13.10;63.00
1091;DHT22;534;48.704;9.122;2023-02-22T07:47:16;13.50;62.50
1091;DHT22;534;48.704;9.122;2023-02-22T07:49:42;14.10;61.90
1091;DHT22;534;48.704;9.122;2023-02-22T07:52:09;14.90;59.80
1091;DHT22;534;48.704;9.122;2023-02-22T07:54:37;15.80;57.90
1091;DHT22;534;48.704;9.122;2023-02-22T07:57:03;16.60;56.00
1091;DHT22;534;48.704;9.122;2023-02-22T07:59:30;17.20;54.60
1091;DHT22;534;48.704;9.122;2023-02-22T08:01:59;17.90;52.70
1091;DHT22;534;48.704;9.122;2023-02-22T08:04:26;18.60;51.50
1091;DHT22;534;48.704;9.122;2023-02-22T08:06:52;19.50;50.90
1091;DHT22;534;48.704;9.122;2023-02-22T08:09:19;20.10;49.10
1091;DHT22;534;48.704;9.122;2023-02-22T08:11:48;20.70;46.90
1091;DHT22;534;48.704;9.122;2023-02-22T08:14:15;20.90;46.50
1091;DHT22;534;48.704;9.122;2023-02-22T08:16:41;21.00;47.00
1091;DHT22;534;48.704;9.122;2023-02-22T08:19:09;20.70;47.10
1091;DHT22;534;48.704;9.122;2023-02-22T08:21:36;20.30;47.90
1091;DHT22;534;48.704;9.122;2023-02-22T08:24:03;19.60;48.80
1091;DHT22;534;48.704;9.122;2023-02-22T08:26:30;19.20;50.00
1091;DHT22;534;48.704;9.122;2023-02-22T08:28:57;18.80;51.00
1091;DHT22;534;48.704;9.122;2023-02-22T08:31:23;18.50;51.60
1091;DHT22;534;48.704;9.122;2023-02-22T08:33:50;18.30;52.60
1091;DHT22;534;48.704;9.122;2023-02-22T08:36:18;17.50;54.00
1091;DHT22;534;48.704;9.122;2023-02-22T08:38:45;17.30;54.70
1091;DHT22;534;48.704;9.122;2023-02-22T08:41:12;17.20;55.10
1091;DHT22;534;48.704;9.122;2023-02-22T08:43:38;17.10;54.10
1091;DHT22;534;48.704;9.122;2023-02-22T08:46:05;16.70;52.00
1091;DHT22;534;48.704;9.122;2023-02-22T08:48:32;16.60;52.00
1091;DHT22;534;48.704;9.122;2023-02-22T08:50:59;16.70;51.50
1091;DHT22;534;48.704;9.122;2023-02-22T08:53:27;16.20;52.50
1091;DHT22;534;48.704;9.122;2023-02-22T08:55:54;15.80;52.70
1091;DHT22;534;48.704;9.122;2023-02-22T08:58:21;15.30;54.20
1091;DHT22;534;48.704;9.122;2023-02-22T09:00:48;15.00;55.20
1091;DHT22;534;48.704;9.122;2023-02-22T09:03:14;14.60;56.60
1091;DHT22;534;48.704;9.122;2023-02-22T09:05:42;14.70;56.60
1091;DHT22;534;48.704;9.122;2023-02-22T09:08:09;14.50;56.60
1091;DHT22;534;48.704;9.122;2023-02-22T09:10:37;14.60;57.20
1091;DHT22;534;48.704;9.122;2023-02-22T09:13:05;14.50;57.00
1091;DHT22;534;48.704;9.122;2023-02-22T09:15:32;14.50;56.80
1091;DHT22;534;48.704;9.122;2023-02-22T09:18:00;14.40;57.70
1091;DHT22;534;48.704;9.122;2023-02-22T09:20:28;14.50;56.70
1091;DHT22;534;48.704;9.122;2023-02-22T09:22:55;14.50;56.60
1091;DHT22;534;48.704;9.122;2023-02-22T09:25:22;14.30;57.00
1091;DHT22;534;48.704;9.122;2023-02-22T09:27:51;14.20;56.80
1091;DHT22;534;48.704;9.122;2023-02-22T09:30:22;14.20;57.20
1091;DHT22;534;48.704;9.122;2023-02-22T09:32:51;14.30;57.10
1091;DHT22;534;48.704;9.122;2023-02-22T09:35:18;14.40;56.80
1091;DHT22;534;48.704;9.122;2023-02-22T09:37:51;14.50;56.30
1091;DHT22;534;48.704;9.122;2023-02-22T09:40:19;14.50;57.00
1091;DHT22;534;48.704;9.122;2023-02-22T09:43:01;14.80;56.20
1091;DHT22;534;48.704;9.122;2023-02-22T09:45:33;14.70;56.30
1091;DHT22;534;48.704;9.122;2023-02-22T09:48:06;14.70;55.30
1091;DHT22;534;48.704;9.122;2023-02-22T09:50:36;14.90;55.90
1091;DHT22;534;48.704;9.122;2023-02-22T09:53:05;15.00;56.10
1091;DHT22;534;48.704;9.122;2023-02-22T09:55:35;15.30;55.20
1091;DHT22;534;48.704;9.122;2023-02-22T09:58:13;15.50;55.70
1091;DHT22;534;48.704;9.122;2023-02-22T10:00:46;15.60;54.40
1091;DHT22;534;48.704;9.122;2023-02-22T10:03:20;15.80;53.70
1091;DHT22;534;48.704;9.122;2023-02-22T10:05:53;15.90;53.90
1091;DHT22;534;48.704;9.122;2023-02-22T10:08:27;15.90;55.10
1091;DHT22;534;48.704;9.122;2023-02-22T10:11:02;16.00;54.90
1091;DHT22;534;48.704;9.122;2023-02-22T10:13:38;16.20;55.00
1091;DHT22;534;48.704;9.122;2023-02-22T10:16:14;16.40;54.50
1091;DHT22;534;48.704;9.122;2023-02-22T10:18:59;16.40;55.20
1091;DHT22;534;48.704;9.122;2023-02-22T10:21:54;16.30;55.90
1091;DHT22;534;48.704;9.122;2023-02-22T10:24:33;16.40;55.70
1091;DHT22;534;48.704;9.122;2023-02-22T10:27:05;16.00;56.60
1091;DHT22;534;48.704;9.122;2023-02-22T10:29:37;16.20;55.40
1091;DHT22;534;48.704;9.122;2023-02-22T10:32:08;16.10;56.30
1091;DHT22;534;48.704;9.122;2023-02-22T10:34:41;15.80;57.20
1091;DHT22;534;48.704;9.122;2023-02-22T10:37:18;15.70;57.90
1091;DHT22;534;48.704;9.122;2023-02-22T10:39:47;15.60;57.40
1091;DHT22;534;48.704;9.122;2023-02-22T10:42:17;15.20;58.30
1091;DHT22;534;48.704;9.122;2023-02-22T10:44:49;15.10;58.70
1091;DHT22;534;48.704;9.122;2023-02-22T10:47:17;15.30;58.10
1091;DHT22;534;48.704;9.122;2023-02-22T10:49:47;15.50;58.00
1091;DHT22;534;48.704;9.122;2023-02-22T10:52:20;15.50;57.50
1091;DHT22;534;48.704;9.122;2023-02-22T10:54:49;15.20;57.80
1091;DHT22;534;48.704;9.122;2023-02-22T10:57:20;15.10;58.50
1091;DHT22;534;48.704;9.122;2023-02-22T10:59:49;15.10;58.60
1091;DHT22;534;48.704;9.122;2023-02-22T11:02:19;15.50;58.10
1091;DHT22;534;48.704;9.122;2023-02-22T11:04:48;15.80;57.60
1091;DHT22;534;48.704;9.122;2023-02-22T11:07:22;16.10;56.40
1091;DHT22;534;48.704;9.122;2023-02-22T11:09:52;16.20;56.30
1091;DHT22;534;48.704;9.122;2023-02-22T11:12:25;16.00;55.50
1091;DHT22;534;48.704;9.122;2023-02-22T11:14:53;15.60;55.70
1091;DHT22;534;48.704;9.122;2023-02-22T11:17:28;15.50;56.80
1091;DHT22;534;48.704;9.122;2023-02-22T11:19:56;15.60;56.50
1091;DHT22;534;48.704;9.122;2023-02-22T11:22:25;15.50;56.20
1091;DHT22;534;48.704;9.122;2023-02-22T11:24:56;15.60;56.20
1091;DHT22;534;48.704;9.122;2023-02-22T11:27:28;15.50;56.40
1091;DHT22;534;48.704;9.122;2023-02-22T11:30:19;15.40;57.40
1091;DHT22;534;48.704;9.122;2023-02-22T11:32:49;15.40;58.20
1091;DHT22;534;48.704;9.122;2023-02-22T11:35:30;15.40;57.60
1091;DHT22;534;48.704;9.122;2023-02-22T11:38:14;15.60;57.80
1091;DHT22;534;48.704;9.122;2023-02-22T11:40:41;15.70;56.80
1091;DHT22;534;48.704;9.122;2023-02-22T11:43:13;15.50;57.10
1091;DHT22;534;48.704;9.122;2023-02-22T11:45:55;15.40;56.50
1091;DHT22;534;48.704;9.122;2023-02-22T11:48:26;15.40;57.70
1091;DHT22;534;48.704;9.122;2023-02-22T11:51:01;15.60;57.20
1091;DHT22;534;48.704;9.122;2023-02-22T11:53:55;15.90;57.40
1091;DHT22;534;48.704;9.122;2023-02-22T11:56:32;15.80;57.60
1091;DHT22;534;48.704;9.122;2023-02-22T11:59:04;15.50;58.20
1091;DHT22;534;48.704;9.122;2023-02-22T12:01:38;15.50;58.40
1091;DHT22;534;48.704;9.122;2023-02-22T12:04:33;15.40;59.10
1091;DHT22;534;48.704;9.122;2023-02-22T12:07:16;15.20;59.30
1091;DHT22;534;48.704;9.122;2023-02-22T12:09:51;15.50;59.40
1091;DHT22;534;48.704;9.122;2023-02-22T12:12:27;15.70;58.80
1091;DHT22;534;48.704;9.122;2023-02-22T12:15:09;15.60;59.00
1091;DHT22;534;48.704;9.122;2023-02-22T12:17:47;15.90;59.00
1091;DHT22;534;48.704;9.122;2023-02-22T12:20:17;16.10;58.50
1091;DHT22;534;48.704;9.122;2023-02-22T12:22:57;16.30;58.70
1091;DHT22;534;48.704;9.122;2023-02-22T12:25:28;16.40;58.00
1091;DHT22;534;48.704;9.122;2023-02-22T12:27:59;16.80;57.00
1091;DHT22;534;48.704;9.122;2023-02-22T12:30:35;17.30;56.60
1091;DHT22;534;48.704;9.122;2023-02-22T12:33:10;17.20;56.40
1091;DHT22;534;48.704;9.122;2023-02-22T12:35:41;17.50;55.60
1091;DHT22;534;48.704;9.122;2023-02-22T12:38:15;17.60;55.70
1091;DHT22;534;48.704;9.122;2023-02-22T12:40:51;17.80;55.70
1091;DHT22;534;48.704;9.122;2023-02-22T12:43:26;17.90;55.90
1091;DHT22;534;48.704;9.122;2023-02-22T12:46:01;18.20;55.10
1091;DHT22;534;48.704;9.122;2023-02-22T12:48:36;18.10;54.80
1091;DHT22;534;48.704;9.122;2023-02-22T12:51:14;18.20;54.80
1091;DHT22;534;48.704;9.122;2023-02-22T12:53:48;18.10;54.90
1091;DHT22;534;48.704;9.122;2023-02-22T12:56:20;17.90;54.70
1091;DHT22;534;48.704;9.122;2023-02-22T12:58:52;17.70;55.00
1091;DHT22;534;48.704;9.122;2023-02-22T13:01:21;17.60;55.60
1091;DHT22;534;48.704;9.122;2023-02-22T13:03:53;17.70;55.70
1091;DHT22;534;48.704;9.122;2023-02-22T13:06:35;17.70;55.50
1091;DHT22;534;48.704;9.122;2023-02-22T13:09:17;18.00;55.30
1091;DHT22;534;48.704;9.122;2023-02-22T13:11:56;18.60;54.40
1091;DHT22;534;48.704;9.122;2023-02-22T13:14:36;18.60;53.60
1091;DHT22;534;48.704;9.122;2023-02-22T13:17:08;18.30;54.30
1091;DHT22;534;48.704;9.122;2023-02-22T13:19:47;18.40;54.40
1091;DHT22;534;48.704;9.122;2023-02-22T13:22:21;18.20;54.30
1091;DHT22;534;48.704;9.122;2023-02-22T13:24:58;18.60;54.10
1091;DHT22;534;48.704;9.122;2023-02-22T13:27:29;19.10;53.40
1091;DHT22;534;48.704;9.122;2023-02-22T13:29:59;19.30;52.70
1091;DHT22;534;48.704;9.122;2023-02-22T13:32:35;19.30;53.10
1091;DHT22;534;48.704;9.122;2023-02-22T13:35:19;19.70;51.90
1091;DHT22;534;48.704;9.122;2023-02-22T13:38:12;19.80;51.50
1091;DHT22;534;48.704;9.122;2023-02-22T13:41:00;19.80;51.40
1091;DHT22;534;48.704;9.122;2023-02-22T13:49:44;19.60;52.00
1091;DHT22;534;48.704;9.122;2023-02-22T13:52:16;20.00;51.40
1091;DHT22;534;48.704;9.122;2023-02-22T13:54:48;19.90;51.00
1091;DHT22;534;48.704;9.122;2023-02-22T13:57:21;19.80;51.00
1091;DHT22;534;48.704;9.122;2023-02-22T14:00:19;19.60;51.50
1091;DHT22;534;48.704;9.122;2023-02-22T14:02:59;19.60;51.70
1091;DHT22;534;48.704;9.122;2023-02-22T14:05:48;19.40;51.50
1091;DHT22;534;48.704;9.122;2023-02-22T14:08:41;19.50;52.00
1091;DHT22;534;48.704;9.122;2023-02-22T14:14:21;19.60;51.30
1091;DHT22;534;48.704;9.122;2023-02-22T14:17:16;19.60;50.40
1091;DHT22;534;48.704;9.122;2023-02-22T14:20:17;19.30;50.80
1091;DHT22;534;48.704;9.122;2023-02-22T14:22:46;19.20;51.20
1091;DHT22;534;48.704;9.122;2023-02-22T14:25:35;19.00;51.50
1091;DHT22;534;48.704;9.122;2023-02-22T14:28:04;18.80;51.90
1091;DHT22;534;48.704;9.122;2023-02-22T14:30:34;18.30;52.10
1091;DHT22;534;48.704;9.122;2023-02-22T14:33:03;17.80;53.20
1091;DHT22;534;48.704;9.122;2023-02-22T14:35:49;17.50;54.60
1091;DHT22;534;48.704;9.122;2023-02-22T14:38:18;17.40;54.40
1091;DHT22;534;48.704;9.122;2023-02-22T14:40:48;17.50;54.90
1091;DHT22;534;48.704;9.122;2023-02-22T14:43:18;17.50;54.90
1091;DHT22;534;48.704;9.122;2023-02-22T14:45:50;17.50;55.30
1091;DHT22;534;48.704;9.122;2023-02-22T14:48:23;17.50;54.90
1091;DHT22;534;48.704;9.122;2023-02-22T14:50:54;17.30;54.90
1091;DHT22;534;48.704;9.122;2023-02-22T14:53:25;17.30;55.30
1091;DHT22;534;48.704;9.122;2023-02-22T14:55:58;17.20;55.80
1091;DHT22;534;48.704;9.122;2023-02-22T14:58:34;17.20;55.70
1091;DHT22;534;48.704;9.122;2023-02-22T15:01:16;17.40;55.60
1091;DHT22;534;48.704;9.122;2023-02-22T15:03:47;17.50;55.60
1091;DHT22;534;48.704;9.122;2023-02-22T15:06:22;17.50;55.40
1091;DHT22;534;48.704;9.122;2023-02-22T15:09:04;17.50;55.70
1091;DHT22;534;48.704;9.122;2023-02-22T15:11:32;17.30;55.90
1091;DHT22;534;48.704;9.122;2023-02-22T15:14:00;17.00;56.40
1091;DHT22;534;48.704;9.122;2023-02-22T15:16:30;17.00;56.60
1091;DHT22;534;48.704;9.122;2023-02-22T15:18:58;17.00;56.70
1091;DHT22;534;48.704;9.122;2023-02-22T15:21:27;16.80;57.30
1091;DHT22;534;48.704;9.122;2023-02-22T15:23:55;16.70;57.50
1091;DHT22;534;48.704;9.122;2023-02-22T15:26:26;16.60;58.00
1091;DHT22;534;48.704;9.122;2023-02-22T15:28:57;16.40;59.00
1091;DHT22;534;48.704;9.122;2023-02-22T15:31:29;16.50;58.70
1091;DHT22;534;48.704;9.122;2023-02-22T15:33:56;16.20;59.40
1091;DHT22;534;48.704;9.122;2023-02-22T15:36:26;16.00;59.90
1091;DHT22;534;48.704;9.122;2023-02-22T15:38:55;15.70;61.00
1091;DHT22;534;48.704;9.122;2023-02-22T15:41:26;15.60;61.20
1091;DHT22;534;48.704;9.122;2023-02-22T15:44:03;15.80;60.90
1091;DHT22;534;48.704;9.122;2023-02-22T15:46:31;15.90;60.70
1091;DHT22;534;48.704;9.122;2023-02-22T15:49:05;16.10;60.40
1091;DHT22;534;48.704;9.122;2023-02-22T15:51:33;16.10;60.20
1091;DHT22;534;48.704;9.122;2023-02-22T15:54:01;16.10;60.30
1091;DHT22;534;48.704;9.122;2023-02-22T15:56:31;16.20;60.20
1091;DHT22;534;48.704;9.122;2023-02-22T15:59:04;16.20;60.20
1091;DHT22;534;48.704;9.122;2023-02-22T16:01:36;16.20;60.10
1091;DHT22;534;48.704;9.122;2023-02-22T16:04:03;16.20;60.20
1091;DHT22;534;48.704;9.122;2023-02-22T16:06:33;15.90;60.70
1091;DHT22;534;48.704;9.122;2023-02-22T16:09:06;16.00;60.70
1091;DHT22;534;48.704;9.122;2023-02-22T16:11:35;16.00;60.80
1091;DHT22;534;48.704;9.122;2023-02-22T16:14:23;16.00;60.80
1091;DHT22;534;48.704;9.122;2023-02-22T16:17:11;15.80;61.10
1091;DHT22;534;48.704;9.122;2023-02-22T16:26:27;15.70;61.80
1091;DHT22;534;48.704;9.122;2023-02-22T16:28:57;15.70;61.80
1091;DHT22;534;48.704;9.122;2023-02-22T16:31:27;15.70;61.80
1091;DHT22;534;48.704;9.122;2023-02-22T16:33:54;15.70;62.00
1091;DHT22;534;48.704;9.122;2023-02-22T16:36:34;15.80;61.80
1091;DHT22;534;48.704;9.122;2023-02-22T16:39:04;15.80;61.80
1091;DHT22;534;48.704;9.122;2023-02-22T16:41:31;15.80;61.50
1091;DHT22;534;48.704;9.122;2023-02-22T16:43:58;15.80;61.70
1091;DHT22;534;48.704;9.122;2023-02-22T16:46:27;15.80;61.60
1091;DHT22;534;48.704;9.122;2023-02-22T16:48:54;15.80;61.50
1091;DHT22;534;48.704;9.122;2023-02-22T16:51:23;15.80;61.40
1091;DHT22;534;48.704;9.122;2023-02-22T16:53:52;15.80;61.40
1091;DHT22;534;48.704;9.122;2023-02-22T16:56:22;15.80;61.60
1091;DHT22;534;48.704;9.122;2023-02-22T16:58:51;15.80;61.60
1091;DHT22;534;48.704;9.122;2023-02-22T17:01:18;15.80;61.60
1091;DHT22;534;48.704;9.122;2023-02-22T17:03:46;15.80;61.90
1091;DHT22;534;48.704;9.122;2023-02-22T17:06:13;15.80;61.60
1091;DHT22;534;48.704;9.122;2023-02-22T17:08:40;15.80;61.70
1091;DHT22;534;48.704;9.122;2023-02-22T17:11:08;15.70;61.90
1091;DHT22;534;48.704;9.122;2023-02-22T17:13:37;15.70;62.00
1091;DHT22;534;48.704;9.122;2023-02-22T17:16:05;15.70;62.20
1091;DHT22;534;48.704;9.122;2023-02-22T17:18:32;15.60;62.40
1091;DHT22;534;48.704;9.122;2023-02-22T17:21:00;15.60;62.70
1091;DHT22;534;48.704;9.122;2023-02-22T17:23:27;15.60;62.70
1091;DHT22;534;48.704;9.122;2023-02-22T17:25:55;15.50;62.80
1091;DHT22;534;48.704;9.122;2023-02-22T17:28:24;15.50;63.00
1091;DHT22;534;48.704;9.122;2023-02-22T17:30:51;15.40;63.10
1091;DHT22;534;48.704;9.122;2023-02-22T17:33:20;15.30;63.40
1091;DHT22;534;48.704;9.122;2023-02-22T17:35:47;15.20;63.70
1091;DHT22;534;48.704;9.122;2023-02-22T17:38:15;15.10;63.80
1091;DHT22;534;48.704;9.122;2023-02-22T17:40:43;15.00;64.30
1091;DHT22;534;48.704;9.122;2023-02-22T17:43:13;15.00;64.60
1091;DHT22;534;48.704;9.122;2023-02-22T17:45:40;14.90;64.70
1091;DHT22;534;48.704;9.122;2023-02-22T17:48:08;14.90;64.80
1091;DHT22;534;48.704;9.122;2023-02-22T17:50:36;14.90;64.90
1091;DHT22;534;48.704;9.122;2023-02-22T17:53:03;14.90;64.90
1091;DHT22;534;48.704;9.122;2023-02-22T17:55:31;14.90;64.60
1091;DHT22;534;48.704;9.122;2023-02-22T17:57:59;14.80;64.30
1091;DHT22;534;48.704;9.122;2023-02-22T18:00:28;14.80;64.10
1091;DHT22;534;48.704;9.122;2023-02-22T18:02:59;14.80;64.00
1091;DHT22;534;48.704;9.122;2023-02-22T18:05:26;14.80;63.70
1091;DHT22;534;48.704;9.122;2023-02-22T18:07:53;14.80;63.80
1091;DHT22;534;48.704;9.122;2023-02-22T18:10:20;14.80;63.90
1091;DHT22;534;48.704;9.122;2023-02-22T18:12:48;14.70;64.10
1091;DHT22;534;48.704;9.122;2023-02-22T18:15:17;14.70;64.10
1091;DHT22;534;48.704;9.122;2023-02-22T18:17:46;14.70;64.10
1091;DHT22;534;48.704;9.122;2023-02-22T18:20:14;14.70;64.30
1091;DHT22;534;48.704;9.122;2023-02-22T18:22:43;14.60;64.80
1091;DHT22;534;48.704;9.122;2023-02-22T18:25:11;14.60;64.80
1091;DHT22;534;48.704;9.122;2023-02-22T18:27:39;14.50;64.90
1091;DHT22;534;48.704;9.122;2023-02-22T18:30:10;14.50;64.60
1091;DHT22;534;48.704;9.122;2023-02-22T18:32:37;14.50;64.20
1091;DHT22;534;48.704;9.122;2023-02-22T18:35:05;14.50;64.20
1091;DHT22;534;48.704;9.122;2023-02-22T18:37:32;14.50;64.20
1091;DHT22;534;48.704;9.122;2023-02-22T18:39:59;14.40;64.40
1091;DHT22;534;48.704;9.122;2023-02-22T18:42:27;14.40;64.30
1091;DHT22;534;48.704;9.122;2023-02-22T18:44:55;14.40;64.70
1091;DHT22;534;48.704;9.122;2023-02-22T18:47:26;14.40;64.50
1091;DHT22;534;48.704;9.122;2023-02-22T18:49:53;14.30;64.60
1091;DHT22;534;48.704;9.122;2023-02-22T18:52:19;14.30;64.70
1091;DHT22;534;48.704;9.122;2023-02-22T18:54:48;14.30;65.00
1091;DHT22;534;48.704;9.122;2023-02-22T18:57:15;14.30;64.80
1091;DHT22;534;48.704;9.122;2023-02-22T18:59:42;14.30;64.60
1091;DHT22;534;48.704;9.122;2023-02-22T19:02:11;14.20;64.60
1091;DHT22;534;48.704;9.122;2023-02-22T19:04:39;14.20;64.60
1091;DHT22;534;48.704;9.122;2023-02-22T19:07:08;14.20;64.70
1091;DHT22;534;48.704;9.122;2023-02-22T19:09:40;14.10;64.90
1091;DHT22;534;48.704;9.122;2023-02-22T19:12:06;14.10;65.10
1091;DHT22;534;48.704;9.122;2023-02-22T19:14:34;14.10;65.10
1091;DHT22;534;48.704;9.122;2023-02-22T19:17:01;14.10;65.50
1091;DHT22;534;48.704;9.122;2023-02-22T19:19:31;14.10;65.50
1091;DHT22;534;48.704;9.122;2023-02-22T19:22:00;14.10;65.50
1091;DHT22;534;48.704;9.122;2023-02-22T19:24:26;14.10;65.60
1091;DHT22;534;48.704;9.122;2023-02-22T19:26:54;14.10;65.50
1091;DHT22;534;48.704;9.122;2023-02-22T19:29:24;14.10;65.70
1091;DHT22;534;48.704;9.122;2023-02-22T19:31:51;14.00;65.80
1091;DHT22;534;48.704;9.122;2023-02-22T19:34:19;14.00;65.90
1091;DHT22;534;48.704;9.122;2023-02-22T19:36:48;14.00;65.80
1091;DHT22;534;48.704;9.122;2023-02-22T19:39:18;14.00;65.70
1091;DHT22;534;48.704;9.122;2023-02-22T19:41:45;14.00;65.60
1091;DHT22;534;48.704;9.122;2023-02-22T19:44:12;14.00;65.60
1091;DHT22;534;48.704;9.122;2023-02-22T19:46:39;13.90;65.80
1091;DHT22;534;48.704;9.122;2023-02-22T19:49:06;13.90;66.00
1091;DHT22;534;48.704;9.122;2023-02-22T19:51:33;13.90;66.10
1091;DHT22;534;48.704;9.122;2023-02-22T19:54:01;13.90;66.00
1091;DHT22;534;48.704;9.122;2023-02-22T19:56:30;13.90;66.20
1091;DHT22;534;48.704;9.122;2023-02-22T19:59:01;13.90;66.10
1091;DHT22;534;48.704;9.122;2023-02-22T20:01:34;13.90;66.20
1091;DHT22;534;48.704;9.122;2023-02-22T20:04:02;13.90;66.40
1091;DHT22;534;48.704;9.122;2023-02-22T20:06:31;13.80;66.20
1091;DHT22;534;48.704;9.122;2023-02-22T20:08:59;13.80;66.20
1091;DHT22;534;48.704;9.122;2023-02-22T20:11:28;13.80;66.40
1091;DHT22;534;48.704;9.122;2023-02-22T20:13:56;13.80;66.50
1091;DHT22;534;48.704;9.122;2023-02-22T20:16:23;13.80;66.70
1091;DHT22;534;48.704;9.122;2023-02-22T20:18:50;13.80;66.80
1091;DHT22;534;48.704;9.122;2023-02-22T20:21:19;13.80;66.50
1091;DHT22;534;48.704;9.122;2023-02-22T20:23:47;13.80;66.20
1091;DHT22;534;48.704;9.122;2023-02-22T20:26:16;13.70;66.30
1091;DHT22;534;48.704;9.122;2023-02-22T20:28:45;13.70;66.60
1091;DHT22;534;48.704;9.122;2023-02-22T20:31:12;13.70;66.70
1091;DHT22;534;48.704;9.122;2023-02-22T20:33:40;13.70;66.70
1091;DHT22;534;48.704;9.122;2023-02-22T20:36:07;13.70;66.70
1091;DHT22;534;48.704;9.122;2023-02-22T20:38:34;13.60;66.60
1091;DHT22;534;48.704;9.122;2023-02-22T20:41:04;13.60;66.30
1091;DHT22;534;48.704;9.122;2023-02-22T20:43:31;13.60;66.70
1091;DHT22;534;48.704;9.122;2023-02-22T20:46:01;13.60;67.00
1091;DHT22;534;48.704;9.122;2023-02-22T20:48:30;13.60;67.00
1091;DHT22;534;48.704;9.122;2023-02-22T20:51:03;13.50;67.10
1091;DHT22;534;48.704;9.122;2023-02-22T20:53:30;13.50;67.10
1091;DHT22;534;48.704;9.122;2023-02-22T20:55:57;13.50;67.10
1091;DHT22;534;48.704;9.122;2023-02-22T20:58:24;13.50;67.20